ローマ/フィウミチーノ の空港の天気 - METARとTAF

ローマ・レオナルド・ダ・ビンチ国際空港 ( LIRF / FCO ) - イタリア ローマ
飛行場実況気象(Metar)
観測時間03/28 23:20 CEST (03/28 21:20 UTC)
風向・風速不定 1m/s
視程10km以上
天気現象
なし
気温9℃
湿度66%
気圧1023hPa
METARLIRF 282120Z VRB01KT CAVOK 09/03 Q1023 NOSIG
過去の天気等 Google飛行場航空写真 Wunderground天気予報

過去48時間のMETAR

飛行場予報(TAF)
発表時間: 3/28 19:00 CEST (3/28 17:00 UTC)
予報対象時間: 28日20時 CEST ~ 30日2時 CEST
風向・風速西北西 5m/s
視程10km以上
なし
28日22時 CEST ~ 28日24時 CEST に徐々に
風向・風速北北東 4m/s
29日11時 CEST ~ 29日13時 CEST に徐々に
風向・風速西 6m/s
29日20時 CEST ~ 29日22時 CEST に徐々に
風向・風速不定 3m/s
TAF LIRF 281700Z 2818/2924 30010KT CAVOK
BECMG 2820/2822 02007KT
BECMG 2909/2911 28012KT
BECMG 2918/2920 VRB05KT